AEG weather

Double Eagle II Airport
Albuquerque, New Mexico, United States

Public forecast

Using degrees Fahrenheit for public forecast. Weather courtesy of forecast.io.

Current aviation weather report (METAR) for Double Eagle II Airport

Retrieved 2020/04/02 14:47 UTC (18 minutes ago):

KAEG 021447Z 23008KT 10SM CLR 12/M03 A2993

Aviation forecast (TAF) for Double Eagle II Airport

Retrieved 2020/04/02 12:22 UTC (3 hours ago):

TAF KAEG 021120Z 0212/0312 26008KT P6SM SCT120 SCT200 FM021600 22015G25KT P6SM FEW120 FM022000 25024G36KT P6SM SCT120 BKN180 FM030200 27011KT P6SM FEW120 SCT180